createdAt,value
2018-04-25T00:00:44.094Z,992.32
2018-04-25T00:01:44.036Z,992.34
2018-04-25T00:02:43.971Z,992.37
2018-04-25T00:03:43.951Z,992.38
2018-04-25T00:04:43.845Z,992.40
2018-04-25T00:05:43.782Z,992.43
2018-04-25T00:06:43.725Z,992.38
2018-04-25T00:07:43.660Z,992.43
2018-04-25T00:08:43.621Z,992.42
2018-04-25T00:09:43.531Z,992.42
2018-04-25T00:10:43.461Z,992.32
2018-04-25T00:11:43.388Z,992.37
2018-04-25T00:12:43.358Z,992.28
2018-04-25T00:13:43.295Z,992.30
2018-04-25T00:14:43.210Z,992.27
2018-04-25T00:15:43.161Z,992.24
2018-04-25T00:16:43.095Z,992.20
2018-04-25T00:17:43.034Z,992.19
2018-04-25T00:18:42.980Z,992.22
2018-04-25T00:19:42.890Z,992.22
2018-04-25T00:20:42.826Z,992.23
2018-04-25T00:21:42.779Z,992.25
2018-04-25T00:22:42.705Z,992.22
2018-04-25T00:23:42.652Z,992.23
2018-04-25T00:24:42.590Z,992.24
2018-04-25T00:25:42.545Z,992.26
2018-04-25T00:26:42.451Z,992.26
2018-04-25T00:27:42.395Z,992.23
2018-04-25T00:28:42.328Z,992.24
2018-04-25T00:29:42.283Z,992.27
2018-04-25T00:30:42.207Z,992.25
2018-04-25T00:31:42.132Z,992.19
2018-04-25T00:32:42.090Z,992.20
2018-04-25T00:33:42.023Z,992.24
2018-04-25T00:34:41.948Z,992.21
2018-04-25T00:35:41.901Z,992.22
2018-04-25T00:36:41.825Z,992.25
2018-04-25T00:37:41.746Z,992.21
2018-04-25T00:38:41.703Z,992.24
2018-04-25T00:39:41.644Z,992.25
2018-04-25T00:40:41.566Z,992.23
2018-04-25T00:41:41.516Z,992.24
2018-04-25T00:42:41.447Z,992.21
2018-04-25T00:43:41.390Z,992.22
2018-04-25T00:44:41.312Z,992.20
2018-04-25T00:45:41.326Z,992.20
2018-04-25T00:46:41.183Z,992.21
2018-04-25T00:47:41.114Z,992.15
2018-04-25T00:48:41.056Z,992.17
2018-04-25T00:49:40.990Z,992.14
2018-04-25T00:50:40.951Z,992.13
2018-04-25T00:51:40.867Z,992.09
2018-04-25T00:52:40.807Z,992.10
2018-04-25T00:53:40.755Z,992.10
2018-04-25T00:54:40.683Z,992.05
2018-04-25T00:55:40.612Z,992.06
2018-04-25T00:56:40.551Z,992.03
2018-04-25T00:57:40.486Z,992.05
2018-04-25T00:58:40.420Z,992.05
2018-04-25T00:59:40.358Z,992.05
2018-04-25T01:00:40.309Z,992.10
2018-04-25T01:01:40.249Z,992.09
2018-04-25T01:02:40.172Z,992.10
2018-04-25T01:03:40.125Z,992.11
2018-04-25T01:04:40.062Z,992.11
2018-04-25T01:05:39.984Z,992.19
2018-04-25T01:06:39.918Z,992.20
2018-04-25T01:07:39.871Z,992.21
2018-04-25T01:08:39.803Z,992.23
2018-04-25T01:09:39.722Z,992.23
2018-04-25T01:10:39.654Z,992.25
2018-04-25T01:11:39.654Z,992.23
2018-04-25T01:12:39.546Z,992.22
2018-04-25T01:13:39.491Z,992.23
2018-04-25T01:14:39.402Z,992.25
2018-04-25T01:15:39.355Z,992.21
2018-04-25T01:16:39.274Z,992.18
2018-04-25T01:17:39.213Z,992.20
2018-04-25T01:18:39.158Z,992.17
2018-04-25T01:19:39.112Z,992.19
2018-04-25T01:20:39.028Z,992.22
2018-04-25T01:21:38.991Z,992.17
2018-04-25T01:22:38.914Z,992.23
2018-04-25T01:23:38.848Z,992.22
2018-04-25T01:24:38.782Z,992.23
2018-04-25T01:25:38.709Z,992.19
2018-04-25T01:26:38.648Z,992.17
2018-04-25T01:27:38.588Z,992.17
2018-04-25T01:28:38.535Z,992.15
2018-04-25T01:29:38.469Z,992.14
2018-04-25T01:30:38.399Z,992.15
2018-04-25T01:31:38.330Z,992.13
2018-04-25T01:32:38.274Z,992.10
2018-04-25T01:33:38.224Z,992.13
2018-04-25T01:34:38.134Z,992.09
2018-04-25T01:35:38.091Z,992.10
2018-04-25T01:36:38.021Z,992.13
2018-04-25T01:37:37.965Z,992.15
2018-04-25T01:38:37.884Z,992.08
2018-04-25T01:39:37.816Z,992.10
2018-04-25T01:40:37.749Z,992.09
2018-04-25T01:41:37.685Z,992.06
2018-04-25T01:42:37.624Z,992.02
2018-04-25T01:43:37.564Z,992.00
2018-04-25T01:44:37.495Z,991.99
2018-04-25T01:45:37.447Z,992.03
2018-04-25T01:46:37.372Z,992.02
2018-04-25T01:47:37.315Z,992.00
2018-04-25T01:48:37.245Z,992.04
2018-04-25T01:49:37.194Z,992.03
2018-04-25T01:50:37.134Z,992.08
2018-04-25T01:51:37.071Z,992.05
2018-04-25T01:52:36.988Z,992.08
2018-04-25T01:53:36.923Z,992.10
2018-04-25T01:54:36.860Z,992.11
2018-04-25T01:55:36.811Z,992.15
2018-04-25T01:56:36.732Z,992.08
2018-04-25T01:57:36.659Z,992.10
2018-04-25T01:58:36.598Z,992.12
2018-04-25T01:59:36.532Z,992.10
2018-04-25T02:00:36.473Z,992.06
2018-04-25T02:01:36.406Z,992.07
2018-04-25T02:02:36.361Z,992.05
2018-04-25T02:03:36.278Z,992.02
2018-04-25T02:04:36.219Z,992.01
2018-04-25T02:05:36.173Z,991.96
2018-04-25T02:06:36.094Z,991.99
2018-04-25T02:07:36.040Z,991.97
2018-04-25T02:08:35.977Z,991.98
2018-04-25T02:09:35.900Z,991.96
2018-04-25T02:10:35.832Z,991.97
2018-04-25T02:11:35.771Z,991.96
2018-04-25T02:12:35.733Z,991.94
2018-04-25T02:13:35.644Z,991.92
2018-04-25T02:14:35.594Z,991.92
2018-04-25T02:15:35.520Z,991.91
2018-04-25T02:16:35.461Z,991.89
2018-04-25T02:17:35.402Z,991.83
2018-04-25T02:18:35.332Z,991.82
2018-04-25T02:19:35.263Z,991.81
2018-04-25T02:20:35.199Z,991.86
2018-04-25T02:21:35.133Z,991.83
2018-04-25T02:22:35.095Z,991.83
2018-04-25T02:23:35.029Z,991.81
2018-04-25T02:24:34.937Z,991.86
2018-04-25T02:25:34.879Z,991.81
2018-04-25T02:26:34.846Z,991.79
2018-04-25T02:27:34.760Z,991.82
2018-04-25T02:28:34.685Z,991.81
2018-04-25T02:29:34.617Z,991.80
2018-04-25T02:30:34.547Z,991.79
2018-04-25T02:31:34.514Z,991.78
2018-04-25T02:32:34.445Z,991.76
2018-04-25T02:33:34.445Z,991.75
2018-04-25T02:34:34.346Z,991.74
2018-04-25T02:35:34.289Z,991.75
2018-04-25T02:36:34.280Z,991.74
2018-04-25T02:37:34.155Z,991.72
2018-04-25T02:38:34.050Z,991.74
2018-04-25T02:39:33.979Z,991.73
2018-04-25T02:40:33.917Z,991.73
2018-04-25T02:41:33.855Z,991.73
2018-04-25T02:42:33.802Z,991.68
2018-04-25T02:43:33.725Z,991.70
2018-04-25T02:44:33.659Z,991.80
2018-04-25T02:45:33.671Z,991.78
2018-04-25T02:46:33.559Z,991.78
2018-04-25T02:47:33.492Z,991.78
2018-04-25T02:48:33.404Z,991.81
2018-04-25T02:49:33.363Z,991.78
2018-04-25T02:50:33.285Z,991.78
2018-04-25T02:51:33.228Z,991.76
2018-04-25T02:52:33.170Z,991.71
2018-04-25T02:53:33.087Z,991.76
2018-04-25T02:54:33.014Z,991.73
2018-04-25T02:55:32.965Z,991.74
2018-04-25T02:56:32.902Z,991.72
2018-04-25T02:57:32.824Z,991.72
2018-04-25T02:58:32.758Z,991.72
2018-04-25T02:59:32.693Z,991.72
2018-04-25T03:00:32.642Z,991.75
2018-04-25T03:01:32.572Z,991.76
2018-04-25T03:02:32.505Z,991.77
2018-04-25T03:03:32.461Z,991.76
2018-04-25T03:04:32.396Z,991.78
2018-04-25T03:05:32.315Z,991.76
2018-04-25T03:06:32.263Z,991.77
2018-04-25T03:07:32.180Z,991.78
2018-04-25T03:08:32.138Z,991.79
2018-04-25T03:09:32.065Z,991.75
2018-04-25T03:10:31.986Z,991.74
2018-04-25T03:11:31.950Z,991.77
2018-04-25T03:12:31.860Z,991.79
2018-04-25T03:13:31.794Z,991.78
2018-04-25T03:14:31.729Z,991.77
2018-04-25T03:15:31.666Z,991.83
2018-04-25T03:16:31.600Z,991.83
2018-04-25T03:17:31.555Z,991.82
2018-04-25T03:18:31.555Z,991.83
2018-04-25T03:19:31.410Z,991.87
2018-04-25T03:20:31.361Z,991.89
2018-04-25T03:21:31.282Z,991.87
2018-04-25T03:22:31.306Z,991.88
2018-04-25T03:23:31.163Z,991.90
2018-04-25T03:24:31.093Z,991.94
2018-04-25T03:25:31.042Z,991.94
2018-04-25T03:26:30.967Z,992.00
2018-04-25T03:27:30.885Z,992.01
2018-04-25T03:28:30.851Z,991.96
2018-04-25T03:29:30.766Z,992.02
2018-04-25T03:30:30.723Z,992.02
2018-04-25T03:31:30.636Z,992.00
2018-04-25T03:32:30.578Z,991.93
2018-04-25T03:33:30.531Z,991.94
2018-04-25T03:34:30.452Z,991.93
2018-04-25T03:35:30.387Z,991.95
2018-04-25T03:36:30.334Z,991.91
2018-04-25T03:37:30.260Z,991.86
2018-04-25T03:38:30.185Z,991.85
2018-04-25T03:39:30.116Z,991.87
2018-04-25T03:40:30.054Z,991.89
2018-04-25T03:41:30.007Z,991.92
2018-04-25T03:42:29.942Z,991.94
2018-04-25T03:43:29.877Z,991.97
2018-04-25T03:44:29.800Z,992.04
2018-04-25T03:45:29.734Z,992.03
2018-04-25T03:46:29.668Z,992.03
2018-04-25T03:47:29.609Z,992.00
2018-04-25T03:48:29.555Z,992.04
2018-04-25T03:49:29.506Z,992.04
2018-04-25T03:50:29.398Z,992.07
2018-04-25T03:51:29.340Z,992.08
2018-04-25T03:52:29.299Z,992.10
2018-04-25T03:53:29.204Z,992.14
2018-04-25T03:54:29.173Z,992.14
2018-04-25T03:55:29.081Z,992.24
2018-04-25T03:56:29.029Z,992.27
2018-04-25T03:57:28.968Z,992.26
2018-04-25T03:58:28.909Z,992.28
2018-04-25T03:59:28.842Z,992.30
2018-04-25T04:00:28.765Z,992.26
2018-04-25T04:01:28.692Z,992.25
2018-04-25T04:02:28.650Z,992.23
2018-04-25T04:03:28.590Z,992.22
2018-04-25T04:04:28.499Z,992.20
2018-04-25T04:05:28.452Z,992.19
2018-04-25T04:06:28.371Z,992.17
2018-04-25T04:07:28.326Z,992.21
2018-04-25T04:08:28.262Z,992.23
2018-04-25T04:09:28.190Z,992.24
2018-04-25T04:10:28.114Z,992.25
2018-04-25T04:11:28.049Z,992.23
2018-04-25T04:12:28.020Z,992.23
2018-04-25T04:13:27.938Z,992.25
2018-04-25T04:14:27.850Z,992.25
2018-04-25T04:15:27.802Z,992.25
2018-04-25T04:16:27.757Z,992.27
2018-04-25T04:17:27.670Z,992.21
2018-04-25T04:18:27.602Z,992.24
2018-04-25T04:19:27.540Z,992.24
2018-04-25T04:20:27.500Z,992.24
2018-04-25T04:21:27.424Z,992.20
2018-04-25T04:22:27.324Z,992.20
2018-04-25T04:23:27.269Z,992.24
2018-04-25T04:24:27.199Z,992.24
2018-04-25T04:25:27.149Z,992.21
2018-04-25T04:26:27.071Z,992.22
2018-04-25T04:27:27.036Z,992.22
2018-04-25T04:28:26.974Z,992.23
2018-04-25T04:29:26.892Z,992.21
2018-04-25T04:30:26.858Z,992.20
2018-04-25T04:31:26.767Z,992.21
2018-04-25T04:32:26.689Z,992.18
2018-04-25T04:33:26.616Z,992.24
2018-04-25T04:34:26.547Z,992.21
2018-04-25T04:35:26.512Z,992.22
2018-04-25T04:36:26.432Z,992.27
2018-04-25T04:37:26.362Z,992.24
2018-04-25T04:38:26.306Z,992.27
2018-04-25T04:39:26.245Z,992.30
2018-04-25T04:40:26.179Z,992.35
2018-04-25T04:41:26.100Z,992.40
2018-04-25T04:42:26.051Z,992.42
2018-04-25T04:43:25.984Z,992.47
2018-04-25T04:44:25.921Z,992.52
2018-04-25T04:45:25.853Z,992.51
2018-04-25T04:46:25.787Z,992.52
2018-04-25T04:47:25.701Z,992.52
2018-04-25T04:48:25.638Z,992.52
2018-04-25T04:49:25.638Z,992.55
2018-04-25T04:50:25.509Z,992.54
2018-04-25T04:51:25.476Z,992.53
2018-04-25T04:52:25.397Z,992.54
2018-04-25T04:53:25.332Z,992.60
2018-04-25T04:54:25.324Z,992.67
2018-04-25T04:55:25.203Z,992.71
2018-04-25T04:56:25.139Z,992.83
2018-04-25T04:57:25.052Z,992.85
2018-04-25T04:58:25.007Z,992.87
2018-04-25T04:59:24.937Z,992.91
2018-04-25T05:00:24.856Z,992.91
2018-04-25T05:01:24.818Z,992.89
2018-04-25T05:02:24.740Z,992.87
2018-04-25T05:03:24.670Z,992.90
2018-04-25T05:04:24.630Z,992.86
2018-04-25T05:05:24.533Z,992.84
2018-04-25T05:06:24.477Z,992.89
2018-04-25T05:07:24.406Z,992.93
2018-04-25T05:08:24.405Z,992.96
2018-04-25T05:09:24.271Z,992.94
2018-04-25T05:10:24.222Z,992.98
2018-04-25T05:11:24.162Z,993.00
2018-04-25T05:12:24.095Z,993.05
2018-04-25T05:13:24.037Z,993.11
2018-04-25T05:14:23.945Z,993.15
2018-04-25T05:15:23.880Z,993.18
2018-04-25T05:16:23.812Z,993.23
2018-04-25T05:17:23.768Z,993.28
2018-04-25T05:18:23.682Z,993.25
2018-04-25T05:19:23.624Z,993.28
2018-04-25T05:20:23.574Z,993.23
2018-04-25T05:21:23.493Z,993.27
2018-04-25T05:22:23.434Z,993.27
2018-04-25T05:23:23.372Z,993.29
2018-04-25T05:24:23.387Z,993.26
2018-04-25T05:25:23.238Z,993.27
2018-04-25T05:26:23.177Z,993.25
2018-04-25T05:27:23.116Z,993.29
2018-04-25T05:28:23.051Z,993.27
2018-04-25T05:29:22.970Z,993.30
2018-04-25T05:30:22.904Z,993.32
2018-04-25T05:31:22.853Z,993.32
2018-04-25T05:32:22.787Z,993.33
2018-04-25T05:33:22.709Z,993.36
2018-04-25T05:34:22.661Z,993.35
2018-04-25T05:35:22.577Z,993.39
2018-04-25T05:36:22.525Z,993.45
2018-04-25T05:37:22.460Z,993.49
2018-04-25T05:38:22.377Z,993.50
2018-04-25T05:39:22.318Z,993.56
2018-04-25T05:40:22.265Z,993.58
2018-04-25T05:41:22.195Z,993.60
2018-04-25T05:42:22.112Z,993.63
2018-04-25T05:43:22.056Z,993.66
2018-04-25T05:44:22.000Z,993.67
2018-04-25T05:45:21.917Z,993.69
2018-04-25T05:46:21.874Z,993.65
2018-04-25T05:47:21.806Z,993.62
2018-04-25T05:48:21.796Z,993.61
2018-04-25T05:49:21.680Z,993.64
2018-04-25T05:50:21.599Z,993.65
2018-04-25T05:51:21.533Z,993.66
2018-04-25T05:52:21.471Z,993.65
2018-04-25T05:53:21.421Z,993.67
2018-04-25T05:54:21.343Z,993.70
2018-04-25T05:55:21.280Z,993.73
2018-04-25T05:56:21.207Z,993.75
2018-04-25T05:57:21.141Z,993.76
2018-04-25T05:58:21.076Z,993.79
2018-04-25T05:59:21.012Z,993.80
2018-04-25T06:00:20.969Z,993.75
2018-04-25T06:01:20.887Z,993.78
2018-04-25T06:02:20.830Z,993.79
2018-04-25T06:03:20.764Z,993.78
2018-04-25T06:04:20.698Z,993.75
2018-04-25T06:05:20.639Z,993.74
2018-04-25T06:06:20.559Z,993.77
2018-04-25T06:07:20.498Z,993.76
2018-04-25T06:08:20.473Z,993.77
2018-04-25T06:09:20.373Z,993.78
2018-04-25T06:10:20.323Z,993.78
2018-04-25T06:11:20.247Z,993.81
2018-04-25T06:12:20.187Z,993.79
2018-04-25T06:13:20.128Z,993.81
2018-04-25T06:14:20.037Z,993.77
2018-04-25T06:15:19.985Z,993.80
2018-04-25T06:16:19.903Z,993.82
2018-04-25T06:17:19.861Z,993.80
2018-04-25T06:18:19.793Z,993.81
2018-04-25T06:19:19.729Z,993.83
2018-04-25T06:20:19.672Z,993.83
2018-04-25T06:21:19.606Z,993.86
2018-04-25T06:22:19.509Z,993.86
2018-04-25T06:23:19.467Z,993.88
2018-04-25T06:24:19.395Z,993.82
2018-04-25T06:25:19.335Z,993.87
2018-04-25T06:26:19.262Z,993.81
2018-04-25T06:27:19.217Z,993.82
2018-04-25T06:28:19.311Z,993.84
2018-04-25T06:29:19.068Z,993.84
2018-04-25T06:30:19.005Z,993.85
2018-04-25T06:31:18.936Z,993.83
2018-04-25T06:32:18.892Z,993.84
2018-04-25T06:33:18.819Z,993.84
2018-04-25T06:34:18.742Z,993.87
2018-04-25T06:35:18.685Z,993.83
2018-04-25T06:36:18.623Z,993.87
2018-04-25T06:37:18.556Z,993.83
2018-04-25T06:38:18.507Z,993.88
2018-04-25T06:39:18.426Z,993.86
2018-04-25T06:40:18.382Z,993.88
2018-04-25T06:41:18.306Z,993.90
2018-04-25T06:42:18.228Z,993.93
2018-04-25T06:43:18.202Z,993.93
2018-04-25T06:44:18.145Z,993.96
2018-04-25T06:45:18.069Z,993.95
2018-04-25T06:46:17.991Z,994.00
2018-04-25T06:47:17.928Z,994.02
2018-04-25T06:48:17.849Z,994.06
2018-04-25T06:49:17.783Z,994.09
2018-04-25T06:50:17.732Z,994.14
2018-04-25T06:51:17.657Z,994.11
2018-04-25T06:52:17.606Z,994.14
2018-04-25T06:53:17.525Z,994.16
2018-04-25T06:54:17.453Z,994.19
2018-04-25T06:55:17.417Z,994.17
2018-04-25T06:56:17.363Z,994.22
2018-04-25T06:57:17.278Z,994.22
2018-04-25T06:58:17.235Z,994.23
2018-04-25T06:59:17.181Z,994.21
2018-04-25T07:00:17.081Z,994.21
2018-04-25T07:01:17.055Z,994.22
2018-04-25T07:02:16.957Z,994.20
2018-04-25T07:03:16.906Z,994.19
2018-04-25T07:04:16.862Z,994.17
2018-04-25T07:05:16.776Z,994.22
2018-04-25T07:06:16.713Z,994.19
2018-04-25T07:07:16.637Z,994.20
2018-04-25T07:08:16.652Z,994.18
2018-04-25T07:09:16.507Z,994.21
2018-04-25T07:10:16.474Z,994.21
2018-04-25T07:11:16.381Z,994.27
2018-04-25T07:12:16.319Z,994.25
2018-04-25T07:13:16.254Z,994.28
2018-04-25T07:14:16.186Z,994.33
2018-04-25T07:15:16.125Z,994.32
2018-04-25T07:16:16.070Z,994.34
2018-04-25T07:17:16.020Z,994.34
2018-04-25T07:18:15.952Z,994.32
2018-04-25T07:19:15.856Z,994.34
2018-04-25T07:20:15.839Z,994.38
2018-04-25T07:21:15.754Z,994.37
2018-04-25T07:22:15.681Z,994.34
2018-04-25T07:23:15.605Z,994.32
2018-04-25T07:24:15.539Z,994.33
2018-04-25T07:25:15.498Z,994.32
2018-04-25T07:26:15.426Z,994.34
2018-04-25T07:27:15.375Z,994.33
2018-04-25T07:28:15.291Z,994.33
2018-04-25T07:29:15.229Z,994.31
2018-04-25T07:30:15.181Z,994.34
2018-04-25T07:31:15.112Z,994.28
2018-04-25T07:32:15.044Z,994.27
2018-04-25T07:33:14.966Z,994.28
2018-04-25T07:34:14.928Z,994.26
2018-04-25T07:35:14.870Z,994.26
2018-04-25T07:36:14.781Z,994.30
2018-04-25T07:37:14.715Z,994.29
2018-04-25T07:38:14.651Z,994.31
2018-04-25T07:39:14.589Z,994.31
2018-04-25T07:40:14.529Z,994.35
2018-04-25T07:41:14.470Z,994.37
2018-04-25T07:42:14.419Z,994.39
2018-04-25T07:43:14.343Z,994.40
2018-04-25T07:44:14.291Z,994.39
2018-04-25T07:45:14.236Z,994.33
2018-04-25T07:46:14.188Z,994.34
2018-04-25T07:47:14.086Z,994.31
2018-04-25T07:48:14.036Z,994.29
2018-04-25T07:49:13.979Z,994.34
2018-04-25T07:50:13.900Z,994.26
2018-04-25T07:51:13.843Z,994.28
2018-04-25T07:52:13.878Z,994.25
2018-04-25T07:53:13.732Z,994.26
2018-04-25T07:54:13.670Z,994.22
2018-04-25T07:55:13.632Z,994.20
2018-04-25T07:56:13.551Z,994.20
2018-04-25T07:57:13.484Z,994.19
2018-04-25T07:58:13.399Z,994.22
2018-04-25T07:59:13.341Z,994.22
2018-04-25T08:00:13.296Z,994.27
2018-04-25T08:01:13.239Z,994.24
2018-04-25T08:02:13.155Z,994.26
2018-04-25T08:03:13.094Z,994.25
2018-04-25T08:04:13.039Z,994.26
2018-04-25T08:05:12.981Z,994.29
2018-04-25T08:06:12.923Z,994.27
2018-04-25T08:07:12.845Z,994.24
2018-04-25T08:08:12.789Z,994.25
2018-04-25T08:09:12.716Z,994.21
2018-04-25T08:10:12.672Z,994.26
2018-04-25T08:11:12.603Z,994.22
2018-04-25T08:12:12.531Z,994.23
2018-04-25T08:13:12.471Z,994.21
2018-04-25T08:14:12.429Z,994.20
2018-04-25T08:15:12.368Z,994.15
2018-04-25T08:16:12.289Z,994.16
2018-04-25T08:17:12.227Z,994.16
2018-04-25T08:18:12.192Z,994.13
2018-04-25T08:19:12.116Z,994.16
2018-04-25T08:20:12.043Z,994.14
2018-04-25T08:21:11.973Z,994.14
2018-04-25T08:22:11.917Z,994.12
2018-04-25T08:23:11.855Z,994.16
2018-04-25T08:24:11.808Z,994.18
2018-04-25T08:25:11.751Z,994.20
2018-04-25T08:26:11.686Z,994.20
2018-04-25T08:27:11.601Z,994.14
2018-04-25T08:28:11.564Z,994.17
2018-04-25T08:29:11.494Z,994.14
2018-04-25T08:30:11.444Z,994.17
2018-04-25T08:31:11.367Z,994.16
2018-04-25T08:32:11.334Z,994.15
2018-04-25T08:33:11.239Z,994.11
2018-04-25T08:34:11.207Z,994.14
2018-04-25T08:35:11.130Z,994.14
2018-04-25T08:36:11.075Z,994.13
2018-04-25T08:37:10.999Z,994.19
2018-04-25T08:38:10.941Z,994.14
2018-04-25T08:39:10.941Z,994.20
2018-04-25T08:40:10.811Z,994.18
2018-04-25T08:41:10.759Z,994.20
2018-04-25T08:42:10.684Z,994.20
2018-04-25T08:43:10.647Z,994.20
2018-04-25T08:44:10.566Z,994.17
2018-04-25T08:45:10.582Z,994.19
2018-04-25T08:46:10.461Z,994.18
2018-04-25T08:47:10.381Z,994.21
2018-04-25T08:48:10.356Z,994.21
2018-04-25T08:49:10.256Z,994.19
2018-04-25T08:50:10.223Z,994.21
2018-04-25T08:51:10.157Z,994.23
2018-04-25T08:52:10.080Z,994.29
2018-04-25T08:53:10.026Z,994.27
2018-04-25T08:54:10.054Z,994.25
2018-04-25T08:55:09.898Z,994.24
2018-04-25T08:56:09.847Z,994.24
2018-04-25T08:57:09.773Z,994.22
2018-04-25T08:58:09.703Z,994.23
2018-04-25T08:59:09.667Z,994.26
2018-04-25T09:00:09.609Z,994.21
2018-04-25T09:01:09.548Z,994.19
2018-04-25T09:02:09.491Z,994.22
2018-04-25T09:03:09.429Z,994.20
2018-04-25T09:04:09.365Z,994.22
2018-04-25T09:05:09.306Z,994.23
2018-04-25T09:06:09.249Z,994.22
2018-04-25T09:07:09.187Z,994.25
2018-04-25T09:08:09.103Z,994.23
2018-04-25T09:09:09.053Z,994.19
2018-04-25T09:10:08.979Z,994.22
2018-04-25T09:11:08.947Z,994.23
2018-04-25T09:12:08.865Z,994.27
2018-04-25T09:13:08.796Z,994.20
2018-04-25T09:14:08.745Z,994.26
2018-04-25T09:15:08.677Z,994.16
2018-04-25T09:16:08.634Z,994.25
2018-04-25T09:17:08.574Z,994.22
2018-04-25T09:18:08.517Z,994.23
2018-04-25T09:19:08.458Z,994.20
2018-04-25T09:20:08.390Z,994.21
2018-04-25T09:21:08.331Z,994.13
2018-04-25T09:22:08.284Z,994.19
2018-04-25T09:23:08.197Z,994.17
2018-04-25T09:24:08.149Z,994.14
2018-04-25T09:25:08.094Z,994.12
2018-04-25T09:26:08.030Z,994.16
2018-04-25T09:27:07.987Z,994.14
2018-04-25T09:28:07.914Z,994.18
2018-04-25T09:29:07.880Z,994.19
2018-04-25T09:30:07.788Z,994.17
2018-04-25T09:31:07.732Z,994.17
2018-04-25T09:32:07.675Z,994.20
2018-04-25T09:33:07.592Z,994.20
2018-04-25T09:34:07.544Z,994.29
2018-04-25T09:35:07.578Z,994.26
2018-04-25T09:36:07.423Z,994.27
2018-04-25T09:37:07.396Z,994.27
2018-04-25T09:38:07.318Z,994.25
2018-04-25T09:39:07.231Z,994.32
2018-04-25T09:40:07.199Z,994.27
2018-04-25T09:41:07.128Z,994.27
2018-04-25T09:42:07.070Z,994.27
2018-04-25T09:43:07.010Z,994.23
2018-04-25T09:44:06.956Z,994.22
2018-04-25T09:45:06.888Z,994.20
2018-04-25T09:46:06.826Z,994.22
2018-04-25T09:47:06.771Z,994.21
2018-04-25T09:48:06.687Z,994.24
2018-04-25T09:49:06.639Z,994.23
2018-04-25T09:50:06.583Z,994.24
2018-04-25T09:51:06.534Z,994.23
2018-04-25T09:52:06.471Z,994.22
2018-04-25T09:53:06.403Z,994.25
2018-04-25T09:54:06.349Z,994.24
2018-04-25T09:55:06.289Z,994.21
2018-04-25T09:56:06.207Z,994.24
2018-04-25T09:57:06.153Z,994.21
2018-04-25T09:58:06.095Z,994.18
2018-04-25T09:59:06.060Z,994.17
2018-04-25T10:00:05.975Z,994.17
2018-04-25T10:01:05.949Z,994.18
2018-04-25T10:02:05.870Z,994.14
2018-04-25T10:03:05.806Z,994.15
2018-04-25T10:04:05.855Z,994.16
2018-04-25T10:05:05.687Z,994.15
2018-04-25T10:06:05.631Z,994.14
2018-04-25T10:07:05.566Z,994.10
2018-04-25T10:08:05.515Z,994.09
2018-04-25T10:09:05.448Z,994.05
2018-04-25T10:10:05.385Z,994.05
2018-04-25T10:11:05.331Z,994.03
2018-04-25T10:12:05.249Z,993.99
2018-04-25T10:13:05.204Z,994.02
2018-04-25T10:14:05.124Z,993.95
2018-04-25T10:15:05.091Z,993.98
2018-04-25T10:16:05.014Z,993.93
2018-04-25T10:17:05.027Z,993.94
2018-04-25T10:18:04.915Z,993.92
2018-04-25T10:19:04.836Z,993.94
2018-04-25T10:20:04.789Z,993.93
2018-04-25T10:21:04.735Z,993.90
2018-04-25T10:22:04.673Z,993.86
2018-04-25T10:23:04.612Z,993.90
2018-04-25T10:24:04.578Z,993.86
2018-04-25T10:25:04.503Z,993.86
2018-04-25T10:26:04.433Z,993.85
2018-04-25T10:27:04.372Z,993.83
2018-04-25T10:28:04.310Z,993.79
2018-04-25T10:29:04.256Z,993.79
2018-04-25T10:30:04.200Z,993.80
2018-04-25T10:31:04.136Z,993.79
2018-04-25T10:32:04.161Z,993.74
2018-04-25T10:33:04.012Z,993.73
2018-04-25T10:34:04.038Z,993.69
2018-04-25T10:35:03.894Z,993.72
2018-04-25T10:36:03.822Z,993.65
2018-04-25T10:37:03.777Z,993.64
2018-04-25T10:38:03.703Z,993.64
2018-04-25T10:39:03.670Z,993.59
2018-04-25T10:40:03.596Z,993.66
2018-04-25T10:41:03.532Z,993.61
2018-04-25T10:42:03.485Z,993.60
2018-04-25T10:43:03.413Z,993.56
2018-04-25T10:44:03.342Z,993.54
2018-04-25T10:45:03.287Z,993.52
2018-04-25T10:46:03.220Z,993.50
2018-04-25T10:47:03.163Z,993.51
2018-04-25T10:48:03.102Z,993.48
2018-04-25T10:49:03.072Z,993.49
2018-04-25T10:50:03.010Z,993.51
2018-04-25T10:51:02.924Z,993.49
2018-04-25T10:52:02.888Z,993.48
2018-04-25T10:53:02.827Z,993.44
2018-04-25T10:54:02.770Z,993.45
2018-04-25T10:55:02.708Z,993.44
2018-04-25T10:56:02.628Z,993.42
2018-04-25T10:57:02.588Z,993.41
2018-04-25T10:58:02.539Z,993.37
2018-04-25T10:59:02.458Z,993.33
2018-04-25T11:00:02.422Z,993.32
2018-04-25T11:01:02.350Z,993.28
2018-04-25T11:02:02.283Z,993.29
2018-04-25T11:03:02.239Z,993.30
2018-04-25T11:04:02.174Z,993.26
2018-04-25T11:05:02.111Z,993.27
2018-04-25T11:06:02.055Z,993.17
2018-04-25T11:07:01.993Z,993.23
2018-04-25T11:08:01.939Z,993.18
2018-04-25T11:09:01.857Z,993.10
2018-04-25T11:10:01.814Z,993.16
2018-04-25T11:11:01.767Z,993.13
2018-04-25T11:12:01.691Z,993.11
2018-04-25T11:13:01.643Z,993.08
2018-04-25T11:14:01.587Z,993.07
2018-04-25T11:15:01.533Z,993.08
2018-04-25T11:16:01.459Z,993.05
2018-04-25T11:17:01.397Z,992.99
2018-04-25T11:18:01.339Z,992.99
2018-04-25T11:19:01.287Z,992.95
2018-04-25T11:20:01.221Z,992.99
2018-04-25T11:21:01.159Z,992.97
2018-04-25T11:22:01.100Z,992.94
2018-04-25T11:23:01.039Z,992.94
2018-04-25T11:24:00.991Z,992.87
2018-04-25T11:25:00.919Z,992.89
2018-04-25T11:26:00.847Z,992.89
2018-04-25T11:27:00.788Z,992.85
2018-04-25T11:28:00.737Z,992.84
2018-04-25T11:29:00.680Z,992.84
2018-04-25T11:30:00.620Z,992.84
2018-04-25T11:31:00.566Z,992.77
2018-04-25T11:32:00.522Z,992.82
2018-04-25T11:33:00.427Z,992.77
2018-04-25T11:34:00.394Z,992.80
2018-04-25T11:35:00.338Z,992.76
2018-04-25T11:36:00.261Z,992.73
2018-04-25T11:37:00.215Z,992.74
2018-04-25T11:38:00.133Z,992.72
2018-04-25T11:39:00.104Z,992.75
2018-04-25T11:40:00.032Z,992.76
2018-04-25T11:40:59.973Z,992.77
2018-04-25T11:41:59.914Z,992.71
2018-04-25T11:42:59.854Z,992.66
2018-04-25T11:43:59.792Z,992.66
2018-04-25T11:44:59.736Z,992.68
2018-04-25T11:45:59.675Z,992.68
2018-04-25T11:46:59.619Z,992.67
2018-04-25T11:47:59.537Z,992.65
2018-04-25T11:48:59.475Z,992.64
2018-04-25T11:49:59.445Z,992.61
2018-04-25T11:50:59.361Z,992.60
2018-04-25T11:51:59.318Z,992.58
2018-04-25T11:52:59.246Z,992.56
2018-04-25T11:53:59.177Z,992.53
2018-04-25T11:54:59.139Z,992.54
2018-04-25T11:55:59.080Z,992.56
2018-04-25T11:56:59.014Z,992.54
2018-04-25T11:57:58.956Z,992.55
2018-04-25T11:58:58.892Z,992.52
2018-04-25T11:59:58.842Z,992.55
2018-04-25T12:00:58.759Z,992.49
2018-04-25T12:01:58.719Z,992.48
2018-04-25T12:02:58.643Z,992.44
2018-04-25T12:03:58.600Z,992.43
2018-04-25T12:04:58.630Z,992.48
2018-04-25T12:05:58.482Z,992.38
2018-04-25T12:06:58.418Z,992.39
2018-04-25T12:07:58.358Z,992.39
2018-04-25T12:08:58.296Z,992.40
2018-04-25T12:09:58.246Z,992.40
2018-04-25T12:10:58.178Z,992.40
2018-04-25T12:11:58.107Z,992.37
2018-04-25T12:12:58.041Z,992.34
2018-04-25T12:13:58.018Z,992.34
2018-04-25T12:14:57.933Z,992.34
2018-04-25T12:15:57.867Z,992.39
2018-04-25T12:16:57.805Z,992.37
2018-04-25T12:17:57.749Z,992.34
2018-04-25T12:18:57.724Z,992.34
2018-04-25T12:19:57.646Z,992.25
2018-04-25T12:20:57.588Z,992.21
2018-04-25T12:21:57.528Z,992.22
2018-04-25T12:22:57.466Z,992.16
2018-04-25T12:23:57.413Z,992.22
2018-04-25T12:24:57.410Z,992.20
2018-04-25T12:25:57.294Z,992.21
2018-04-25T12:26:57.232Z,992.24
2018-04-25T12:27:57.170Z,992.21